sensor_id;sensor_type;location;lat;lon;timestamp;P1;durP1;ratioP1;P2;durP2;ratioP2
32505;SDS011;18955;51.224;8.482;2023-05-17T00:00:07;13.75;;;3.63;;
32505;SDS011;18955;51.224;8.482;2023-05-17T00:02:35;11.43;;;3.40;;
32505;SDS011;18955;51.224;8.482;2023-05-17T00:07:28;10.93;;;3.15;;
32505;SDS011;18955;51.224;8.482;2023-05-17T00:09:54;9.45;;;2.95;;
32505;SDS011;18955;51.224;8.482;2023-05-17T00:12:20;11.65;;;3.22;;
32505;SDS011;18955;51.224;8.482;2023-05-17T00:14:46;6.32;;;2.42;;
32505;SDS011;18955;51.224;8.482;2023-05-17T00:17:12;6.30;;;2.65;;
32505;SDS011;18955;51.224;8.482;2023-05-17T00:19:39;8.07;;;2.47;;
32505;SDS011;18955;51.224;8.482;2023-05-17T00:22:05;6.50;;;2.80;;
32505;SDS011;18955;51.224;8.482;2023-05-17T00:24:31;8.40;;;2.63;;
32505;SDS011;18955;51.224;8.482;2023-05-17T00:26:57;11.27;;;2.90;;
32505;SDS011;18955;51.224;8.482;2023-05-17T00:29:23;11.68;;;2.78;;
32505;SDS011;18955;51.224;8.482;2023-05-17T00:31:50;8.73;;;2.75;;
32505;SDS011;18955;51.224;8.482;2023-05-17T00:34:16;9.88;;;2.25;;
32505;SDS011;18955;51.224;8.482;2023-05-17T00:36:43;7.40;;;3.08;;
32505;SDS011;18955;51.224;8.482;2023-05-17T00:39:09;9.20;;;2.45;;
32505;SDS011;18955;51.224;8.482;2023-05-17T00:41:36;11.75;;;2.72;;
32505;SDS011;18955;51.224;8.482;2023-05-17T00:44:02;11.98;;;2.75;;
32505;SDS011;18955;51.224;8.482;2023-05-17T00:46:28;4.05;;;1.98;;
32505;SDS011;18955;51.224;8.482;2023-05-17T00:48:55;13.43;;;3.20;;
32505;SDS011;18955;51.224;8.482;2023-05-17T00:51:21;7.60;;;3.13;;
32505;SDS011;18955;51.224;8.482;2023-05-17T00:53:47;11.80;;;3.28;;
32505;SDS011;18955;51.224;8.482;2023-05-17T00:56:14;12.55;;;3.20;;
32505;SDS011;18955;51.224;8.482;2023-05-17T00:58:41;10.75;;;3.28;;
32505;SDS011;18955;51.224;8.482;2023-05-17T01:01:08;9.98;;;3.72;;
32505;SDS011;18955;51.224;8.482;2023-05-17T01:03:35;9.82;;;3.47;;
32505;SDS011;18955;51.224;8.482;2023-05-17T01:06:01;6.82;;;2.85;;
32505;SDS011;18955;51.224;8.482;2023-05-17T01:08:28;13.45;;;3.30;;
32505;SDS011;18955;51.224;8.482;2023-05-17T01:27:38;13.38;;;4.00;;
32505;SDS011;18955;51.224;8.482;2023-05-17T01:30:09;23.95;;;4.25;;
32505;SDS011;18955;51.224;8.482;2023-05-17T01:32:39;13.80;;;3.88;;
32505;SDS011;18955;51.224;8.482;2023-05-17T01:35:06;13.65;;;4.18;;
32505;SDS011;18955;51.224;8.482;2023-05-17T01:37:34;13.48;;;3.83;;
32505;SDS011;18955;51.224;8.482;2023-05-17T01:40:00;16.02;;;4.57;;
32505;SDS011;18955;51.224;8.482;2023-05-17T01:42:28;11.32;;;4.15;;
32505;SDS011;18955;51.224;8.482;2023-05-17T01:47:38;13.80;;;3.92;;
32505;SDS011;18955;51.224;8.482;2023-05-17T01:50:06;9.50;;;3.28;;
32505;SDS011;18955;51.224;8.482;2023-05-17T01:52:44;13.40;;;4.35;;
32505;SDS011;18955;51.224;8.482;2023-05-17T01:56:03;10.27;;;4.30;;
32505;SDS011;18955;51.224;8.482;2023-05-17T01:58:14;14.98;;;4.15;;
32505;SDS011;18955;51.224;8.482;2023-05-17T02:00:41;14.82;;;4.57;;
32505;SDS011;18955;51.224;8.482;2023-05-17T02:03:11;14.93;;;4.45;;
32505;SDS011;18955;51.224;8.482;2023-05-17T02:05:41;19.65;;;5.32;;
32505;SDS011;18955;51.224;8.482;2023-05-17T02:08:07;11.77;;;4.30;;
32505;SDS011;18955;51.224;8.482;2023-05-17T02:10:33;15.48;;;4.53;;
32505;SDS011;18955;51.224;8.482;2023-05-17T02:13:02;20.52;;;5.30;;
32505;SDS011;18955;51.224;8.482;2023-05-17T02:15:28;14.80;;;4.63;;
32505;SDS011;18955;51.224;8.482;2023-05-17T02:17:54;18.70;;;4.68;;
32505;SDS011;18955;51.224;8.482;2023-05-17T02:20:22;14.02;;;4.50;;
32505;SDS011;18955;51.224;8.482;2023-05-17T02:22:48;20.75;;;4.65;;
32505;SDS011;18955;51.224;8.482;2023-05-17T02:25:14;20.02;;;5.00;;
32505;SDS011;18955;51.224;8.482;2023-05-17T02:27:41;13.85;;;4.82;;
32505;SDS011;18955;51.224;8.482;2023-05-17T02:30:07;12.05;;;3.78;;
32505;SDS011;18955;51.224;8.482;2023-05-17T02:32:33;19.30;;;4.63;;
32505;SDS011;18955;51.224;8.482;2023-05-17T02:35:00;16.65;;;5.13;;
32505;SDS011;18955;51.224;8.482;2023-05-17T02:37:26;12.52;;;3.65;;
32505;SDS011;18955;51.224;8.482;2023-05-17T02:39:52;19.35;;;5.40;;
32505;SDS011;18955;51.224;8.482;2023-05-17T02:42:18;12.30;;;5.15;;
32505;SDS011;18955;51.224;8.482;2023-05-17T02:44:44;19.92;;;5.57;;
32505;SDS011;18955;51.224;8.482;2023-05-17T02:47:14;17.98;;;4.68;;
32505;SDS011;18955;51.224;8.482;2023-05-17T02:49:40;18.58;;;4.90;;
32505;SDS011;18955;51.224;8.482;2023-05-17T02:52:06;17.50;;;4.78;;
32505;SDS011;18955;51.224;8.482;2023-05-17T02:54:32;13.68;;;4.30;;
32505;SDS011;18955;51.224;8.482;2023-05-17T02:56:59;17.20;;;4.88;;
32505;SDS011;18955;51.224;8.482;2023-05-17T02:59:26;24.00;;;6.22;;
32505;SDS011;18955;51.224;8.482;2023-05-17T03:01:52;13.68;;;5.07;;
32505;SDS011;18955;51.224;8.482;2023-05-17T03:04:18;23.40;;;5.05;;
32505;SDS011;18955;51.224;8.482;2023-05-17T03:06:45;20.95;;;5.57;;
32505;SDS011;18955;51.224;8.482;2023-05-17T03:09:12;17.40;;;5.65;;
32505;SDS011;18955;51.224;8.482;2023-05-17T03:11:38;18.73;;;4.63;;
32505;SDS011;18955;51.224;8.482;2023-05-17T03:14:11;17.27;;;4.72;;
32505;SDS011;18955;51.224;8.482;2023-05-17T03:19:04;14.07;;;4.40;;
32505;SDS011;18955;51.224;8.482;2023-05-17T03:21:31;18.65;;;4.80;;
32505;SDS011;18955;51.224;8.482;2023-05-17T03:23:57;20.65;;;5.07;;
32505;SDS011;18955;51.224;8.482;2023-05-17T03:26:23;19.90;;;5.38;;
32505;SDS011;18955;51.224;8.482;2023-05-17T03:28:51;17.00;;;5.07;;
32505;SDS011;18955;51.224;8.482;2023-05-17T03:31:18;17.58;;;5.45;;
32505;SDS011;18955;51.224;8.482;2023-05-17T03:33:44;13.65;;;4.75;;
32505;SDS011;18955;51.224;8.482;2023-05-17T03:36:11;17.65;;;4.68;;
32505;SDS011;18955;51.224;8.482;2023-05-17T03:38:38;17.60;;;5.18;;
32505;SDS011;18955;51.224;8.482;2023-05-17T03:41:04;16.15;;;5.13;;
32505;SDS011;18955;51.224;8.482;2023-05-17T03:43:31;15.98;;;5.35;;
32505;SDS011;18955;51.224;8.482;2023-05-17T03:45:58;16.55;;;5.05;;
32505;SDS011;18955;51.224;8.482;2023-05-17T03:48:25;19.27;;;5.60;;
32505;SDS011;18955;51.224;8.482;2023-05-17T03:50:53;15.10;;;5.30;;
32505;SDS011;18955;51.224;8.482;2023-05-17T03:53:20;16.23;;;5.13;;
32505;SDS011;18955;51.224;8.482;2023-05-17T03:55:46;22.52;;;5.35;;
32505;SDS011;18955;51.224;8.482;2023-05-17T03:58:12;17.80;;;5.00;;
32505;SDS011;18955;51.224;8.482;2023-05-17T04:00:40;18.77;;;5.40;;
32505;SDS011;18955;51.224;8.482;2023-05-17T04:03:12;19.42;;;5.63;;
32505;SDS011;18955;51.224;8.482;2023-05-17T04:05:39;21.08;;;5.80;;
32505;SDS011;18955;51.224;8.482;2023-05-17T04:08:10;16.50;;;5.05;;
32505;SDS011;18955;51.224;8.482;2023-05-17T04:10:37;20.23;;;4.75;;
32505;SDS011;18955;51.224;8.482;2023-05-17T04:13:07;14.25;;;4.80;;
32505;SDS011;18955;51.224;8.482;2023-05-17T04:15:35;13.85;;;5.28;;
32505;SDS011;18955;51.224;8.482;2023-05-17T04:18:03;15.68;;;4.70;;
32505;SDS011;18955;51.224;8.482;2023-05-17T04:20:29;17.80;;;4.75;;
32505;SDS011;18955;51.224;8.482;2023-05-17T04:22:56;22.20;;;5.28;;
32505;SDS011;18955;51.224;8.482;2023-05-17T04:25:24;20.17;;;5.75;;
32505;SDS011;18955;51.224;8.482;2023-05-17T04:27:50;18.13;;;4.93;;
32505;SDS011;18955;51.224;8.482;2023-05-17T04:30:18;18.50;;;4.75;;
32505;SDS011;18955;51.224;8.482;2023-05-17T04:32:46;15.20;;;4.53;;
32505;SDS011;18955;51.224;8.482;2023-05-17T04:35:12;13.18;;;4.40;;
32505;SDS011;18955;51.224;8.482;2023-05-17T04:37:42;17.70;;;4.47;;
32505;SDS011;18955;51.224;8.482;2023-05-17T04:40:17;15.00;;;4.55;;
32505;SDS011;18955;51.224;8.482;2023-05-17T04:42:45;18.35;;;4.75;;
32505;SDS011;18955;51.224;8.482;2023-05-17T04:45:12;14.82;;;5.20;;
32505;SDS011;18955;51.224;8.482;2023-05-17T04:47:38;23.23;;;4.15;;
32505;SDS011;18955;51.224;8.482;2023-05-17T04:50:05;10.63;;;4.18;;
32505;SDS011;18955;51.224;8.482;2023-05-17T04:52:34;17.92;;;4.45;;
32505;SDS011;18955;51.224;8.482;2023-05-17T04:55:01;18.45;;;4.22;;
32505;SDS011;18955;51.224;8.482;2023-05-17T04:57:28;14.10;;;3.92;;
32505;SDS011;18955;51.224;8.482;2023-05-17T04:59:57;15.68;;;3.72;;
32505;SDS011;18955;51.224;8.482;2023-05-17T05:02:24;12.43;;;3.97;;
32505;SDS011;18955;51.224;8.482;2023-05-17T05:04:51;11.23;;;3.38;;
32505;SDS011;18955;51.224;8.482;2023-05-17T05:07:17;14.48;;;3.78;;
32505;SDS011;18955;51.224;8.482;2023-05-17T05:09:45;12.27;;;4.35;;
32505;SDS011;18955;51.224;8.482;2023-05-17T05:12:12;16.60;;;4.93;;
32505;SDS011;18955;51.224;8.482;2023-05-17T05:14:39;17.05;;;4.10;;
32505;SDS011;18955;51.224;8.482;2023-05-17T05:19:33;11.88;;;3.75;;
32505;SDS011;18955;51.224;8.482;2023-05-17T05:22:00;15.10;;;3.47;;
32505;SDS011;18955;51.224;8.482;2023-05-17T05:24:28;15.68;;;3.78;;
32505;SDS011;18955;51.224;8.482;2023-05-17T05:26:54;14.48;;;3.80;;
32505;SDS011;18955;51.224;8.482;2023-05-17T05:29:22;16.55;;;3.85;;
32505;SDS011;18955;51.224;8.482;2023-05-17T05:31:48;12.27;;;2.75;;
32505;SDS011;18955;51.224;8.482;2023-05-17T05:34:15;15.98;;;3.97;;
32505;SDS011;18955;51.224;8.482;2023-05-17T05:36:41;14.90;;;3.67;;
32505;SDS011;18955;51.224;8.482;2023-05-17T05:39:11;19.92;;;4.82;;
32505;SDS011;18955;51.224;8.482;2023-05-17T05:41:37;10.95;;;3.42;;
32505;SDS011;18955;51.224;8.482;2023-05-17T05:44:04;12.50;;;3.92;;
32505;SDS011;18955;51.224;8.482;2023-05-17T05:46:30;11.57;;;3.47;;
32505;SDS011;18955;51.224;8.482;2023-05-17T05:51:23;15.68;;;3.90;;
32505;SDS011;18955;51.224;8.482;2023-05-17T05:53:50;17.77;;;3.90;;
32505;SDS011;18955;51.224;8.482;2023-05-17T05:56:18;15.40;;;3.55;;
32505;SDS011;18955;51.224;8.482;2023-05-17T05:58:44;8.55;;;2.47;;
32505;SDS011;18955;51.224;8.482;2023-05-17T06:01:11;15.77;;;3.25;;
32505;SDS011;18955;51.224;8.482;2023-05-17T06:03:37;12.85;;;2.47;;
32505;SDS011;18955;51.224;8.482;2023-05-17T06:06:03;12.43;;;2.17;;
32505;SDS011;18955;51.224;8.482;2023-05-17T06:08:30;17.15;;;2.95;;
32505;SDS011;18955;51.224;8.482;2023-05-17T06:10:56;19.50;;;2.80;;
32505;SDS011;18955;51.224;8.482;2023-05-17T06:13:22;14.27;;;2.78;;
32505;SDS011;18955;51.224;8.482;2023-05-17T06:15:48;11.25;;;2.78;;
32505;SDS011;18955;51.224;8.482;2023-05-17T06:18:15;18.17;;;3.33;;
32505;SDS011;18955;51.224;8.482;2023-05-17T06:20:41;9.30;;;1.75;;
32505;SDS011;18955;51.224;8.482;2023-05-17T06:23:08;10.15;;;2.50;;
32505;SDS011;18955;51.224;8.482;2023-05-17T06:25:34;17.13;;;2.30;;
32505;SDS011;18955;51.224;8.482;2023-05-17T06:28:01;19.58;;;2.80;;
32505;SDS011;18955;51.224;8.482;2023-05-17T06:30:28;8.52;;;2.63;;
32505;SDS011;18955;51.224;8.482;2023-05-17T06:32:55;13.10;;;2.63;;
32505;SDS011;18955;51.224;8.482;2023-05-17T06:35:21;8.93;;;2.10;;
32505;SDS011;18955;51.224;8.482;2023-05-17T06:37:47;17.52;;;3.30;;
32505;SDS011;18955;51.224;8.482;2023-05-17T06:40:13;17.98;;;3.75;;
32505;SDS011;18955;51.224;8.482;2023-05-17T06:42:40;12.32;;;3.13;;
32505;SDS011;18955;51.224;8.482;2023-05-17T06:45:06;14.40;;;3.17;;
32505;SDS011;18955;51.224;8.482;2023-05-17T06:49:59;14.95;;;2.67;;
32505;SDS011;18955;51.224;8.482;2023-05-17T06:54:51;11.63;;;2.63;;
32505;SDS011;18955;51.224;8.482;2023-05-17T06:57:18;7.00;;;2.20;;
32505;SDS011;18955;51.224;8.482;2023-05-17T06:59:44;7.35;;;1.67;;
32505;SDS011;18955;51.224;8.482;2023-05-17T07:02:10;10.43;;;2.95;;
32505;SDS011;18955;51.224;8.482;2023-05-17T07:04:36;10.23;;;2.60;;
32505;SDS011;18955;51.224;8.482;2023-05-17T07:07:03;14.52;;;2.80;;
32505;SDS011;18955;51.224;8.482;2023-05-17T07:09:30;10.95;;;2.53;;
32505;SDS011;18955;51.224;8.482;2023-05-17T07:11:56;15.07;;;2.80;;
32505;SDS011;18955;51.224;8.482;2023-05-17T07:14:22;23.83;;;3.38;;
32505;SDS011;18955;51.224;8.482;2023-05-17T07:16:48;11.35;;;1.85;;
32505;SDS011;18955;51.224;8.482;2023-05-17T07:19:15;12.18;;;2.25;;
32505;SDS011;18955;51.224;8.482;2023-05-17T07:21:41;14.05;;;2.55;;
32505;SDS011;18955;51.224;8.482;2023-05-17T07:24:07;13.27;;;2.72;;
32505;SDS011;18955;51.224;8.482;2023-05-17T07:26:34;20.40;;;3.47;;
32505;SDS011;18955;51.224;8.482;2023-05-17T07:29:00;14.95;;;2.90;;
32505;SDS011;18955;51.224;8.482;2023-05-17T07:31:26;10.18;;;2.25;;
32505;SDS011;18955;51.224;8.482;2023-05-17T07:33:52;15.70;;;2.50;;
32505;SDS011;18955;51.224;8.482;2023-05-17T07:36:18;19.02;;;2.80;;
32505;SDS011;18955;51.224;8.482;2023-05-17T07:38:45;15.38;;;1.90;;
32505;SDS011;18955;51.224;8.482;2023-05-17T07:41:11;21.63;;;2.67;;
32505;SDS011;18955;51.224;8.482;2023-05-17T07:43:41;11.50;;;2.33;;
32505;SDS011;18955;51.224;8.482;2023-05-17T07:46:07;18.05;;;3.85;;
32505;SDS011;18955;51.224;8.482;2023-05-17T07:48:33;16.58;;;2.55;;
32505;SDS011;18955;51.224;8.482;2023-05-17T07:51:00;16.40;;;3.10;;
32505;SDS011;18955;51.224;8.482;2023-05-17T07:53:26;15.55;;;2.50;;
32505;SDS011;18955;51.224;8.482;2023-05-17T07:55:52;20.00;;;3.60;;
32505;SDS011;18955;51.224;8.482;2023-05-17T07:58:18;13.90;;;3.25;;
32505;SDS011;18955;51.224;8.482;2023-05-17T08:00:44;11.90;;;1.65;;
32505;SDS011;18955;51.224;8.482;2023-05-17T08:03:11;17.08;;;3.78;;
32505;SDS011;18955;51.224;8.482;2023-05-17T08:05:37;11.63;;;1.98;;
32505;SDS011;18955;51.224;8.482;2023-05-17T08:08:03;10.48;;;2.08;;
32505;SDS011;18955;51.224;8.482;2023-05-17T08:10:29;15.20;;;2.45;;
32505;SDS011;18955;51.224;8.482;2023-05-17T08:12:56;16.38;;;3.05;;
32505;SDS011;18955;51.224;8.482;2023-05-17T08:15:22;17.88;;;2.90;;
32505;SDS011;18955;51.224;8.482;2023-05-17T08:17:48;23.67;;;2.67;;
32505;SDS011;18955;51.224;8.482;2023-05-17T08:20:14;14.70;;;2.75;;
32505;SDS011;18955;51.224;8.482;2023-05-17T08:22:41;20.77;;;3.30;;
32505;SDS011;18955;51.224;8.482;2023-05-17T08:25:07;11.27;;;2.45;;
32505;SDS011;18955;51.224;8.482;2023-05-17T08:27:33;15.50;;;2.65;;
32505;SDS011;18955;51.224;8.482;2023-05-17T08:30:00;15.73;;;3.28;;
32505;SDS011;18955;51.224;8.482;2023-05-17T08:32:26;21.27;;;3.22;;
32505;SDS011;18955;51.224;8.482;2023-05-17T08:34:52;13.13;;;3.00;;
32505;SDS011;18955;51.224;8.482;2023-05-17T08:37:19;15.63;;;2.83;;
32505;SDS011;18955;51.224;8.482;2023-05-17T08:39:45;15.32;;;2.75;;
32505;SDS011;18955;51.224;8.482;2023-05-17T08:42:13;14.13;;;3.00;;
32505;SDS011;18955;51.224;8.482;2023-05-17T08:44:46;16.75;;;3.63;;
32505;SDS011;18955;51.224;8.482;2023-05-17T08:47:13;17.65;;;3.25;;
32505;SDS011;18955;51.224;8.482;2023-05-17T08:49:51;11.05;;;2.35;;
32505;SDS011;18955;51.224;8.482;2023-05-17T08:52:19;16.50;;;2.53;;
32505;SDS011;18955;51.224;8.482;2023-05-17T08:54:47;15.48;;;2.75;;
32505;SDS011;18955;51.224;8.482;2023-05-17T08:57:13;16.55;;;2.42;;
32505;SDS011;18955;51.224;8.482;2023-05-17T08:59:43;13.05;;;2.28;;
32505;SDS011;18955;51.224;8.482;2023-05-17T09:02:10;15.70;;;2.30;;
32505;SDS011;18955;51.224;8.482;2023-05-17T09:04:39;12.75;;;3.08;;
32505;SDS011;18955;51.224;8.482;2023-05-17T09:07:05;17.08;;;2.80;;
32505;SDS011;18955;51.224;8.482;2023-05-17T09:09:32;9.65;;;2.40;;
32505;SDS011;18955;51.224;8.482;2023-05-17T09:11:58;11.13;;;2.13;;
32505;SDS011;18955;51.224;8.482;2023-05-17T09:14:24;13.55;;;2.35;;
32505;SDS011;18955;51.224;8.482;2023-05-17T09:16:59;19.08;;;3.25;;
32505;SDS011;18955;51.224;8.482;2023-05-17T09:19:26;23.45;;;2.78;;
32505;SDS011;18955;51.224;8.482;2023-05-17T09:21:52;13.27;;;2.75;;
32505;SDS011;18955;51.224;8.482;2023-05-17T09:24:26;17.10;;;2.97;;
32505;SDS011;18955;51.224;8.482;2023-05-17T09:26:59;13.65;;;2.80;;
32505;SDS011;18955;51.224;8.482;2023-05-17T09:29:28;11.90;;;2.65;;
32505;SDS011;18955;51.224;8.482;2023-05-17T09:31:56;14.23;;;3.22;;
32505;SDS011;18955;51.224;8.482;2023-05-17T09:34:39;12.23;;;2.92;;
32505;SDS011;18955;51.224;8.482;2023-05-17T09:37:16;15.32;;;3.42;;
32505;SDS011;18955;51.224;8.482;2023-05-17T09:39:44;18.88;;;3.28;;
32505;SDS011;18955;51.224;8.482;2023-05-17T09:42:12;18.52;;;3.40;;
32505;SDS011;18955;51.224;8.482;2023-05-17T09:47:20;13.68;;;2.80;;
32505;SDS011;18955;51.224;8.482;2023-05-17T09:49:51;17.15;;;2.88;;
32505;SDS011;18955;51.224;8.482;2023-05-17T09:52:18;16.15;;;2.67;;
32505;SDS011;18955;51.224;8.482;2023-05-17T09:54:54;13.02;;;2.53;;
32505;SDS011;18955;51.224;8.482;2023-05-17T09:57:22;14.25;;;2.20;;
32505;SDS011;18955;51.224;8.482;2023-05-17T09:59:49;17.15;;;2.83;;
32505;SDS011;18955;51.224;8.482;2023-05-17T10:02:20;13.25;;;2.60;;
32505;SDS011;18955;51.224;8.482;2023-05-17T10:04:50;11.27;;;2.83;;
32505;SDS011;18955;51.224;8.482;2023-05-17T10:07:18;17.10;;;2.67;;
32505;SDS011;18955;51.224;8.482;2023-05-17T10:09:46;20.25;;;2.85;;
32505;SDS011;18955;51.224;8.482;2023-05-17T10:12:15;15.95;;;2.70;;
32505;SDS011;18955;51.224;8.482;2023-05-17T10:14:43;12.20;;;2.58;;
32505;SDS011;18955;51.224;8.482;2023-05-17T10:17:09;7.70;;;2.25;;
32505;SDS011;18955;51.224;8.482;2023-05-17T10:19:37;13.65;;;2.97;;
32505;SDS011;18955;51.224;8.482;2023-05-17T10:22:03;12.25;;;2.15;;
32505;SDS011;18955;51.224;8.482;2023-05-17T10:24:31;14.50;;;2.58;;
32505;SDS011;18955;51.224;8.482;2023-05-17T10:26:58;13.13;;;2.38;;
32505;SDS011;18955;51.224;8.482;2023-05-17T10:29:25;13.48;;;3.22;;
32505;SDS011;18955;51.224;8.482;2023-05-17T10:31:52;11.60;;;2.60;;
32505;SDS011;18955;51.224;8.482;2023-05-17T10:34:20;15.32;;;3.20;;
32505;SDS011;18955;51.224;8.482;2023-05-17T10:36:47;13.35;;;2.45;;
32505;SDS011;18955;51.224;8.482;2023-05-17T10:39:14;15.38;;;2.63;;
32505;SDS011;18955;51.224;8.482;2023-05-17T10:41:42;13.15;;;2.65;;
32505;SDS011;18955;51.224;8.482;2023-05-17T10:44:13;8.73;;;2.60;;
32505;SDS011;18955;51.224;8.482;2023-05-17T10:46:49;12.63;;;2.15;;
32505;SDS011;18955;51.224;8.482;2023-05-17T10:49:17;11.27;;;2.40;;
32505;SDS011;18955;51.224;8.482;2023-05-17T10:51:43;12.65;;;2.03;;
32505;SDS011;18955;51.224;8.482;2023-05-17T10:54:11;16.95;;;2.53;;
32505;SDS011;18955;51.224;8.482;2023-05-17T10:56:52;10.40;;;2.10;;
32505;SDS011;18955;51.224;8.482;2023-05-17T10:59:25;13.77;;;2.33;;
32505;SDS011;18955;51.224;8.482;2023-05-17T11:02:12;16.63;;;2.60;;
32505;SDS011;18955;51.224;8.482;2023-05-17T11:04:42;8.68;;;2.42;;
32505;SDS011;18955;51.224;8.482;2023-05-17T11:09:45;18.33;;;3.17;;
32505;SDS011;18955;51.224;8.482;2023-05-17T11:12:31;12.23;;;2.42;;
32505;SDS011;18955;51.224;8.482;2023-05-17T11:20:07;15.13;;;2.65;;
32505;SDS011;18955;51.224;8.482;2023-05-17T11:25:08;17.08;;;2.97;;
32505;SDS011;18955;51.224;8.482;2023-05-17T11:27:48;12.43;;;2.20;;
32505;SDS011;18955;51.224;8.482;2023-05-17T11:30:26;9.52;;;2.33;;
32505;SDS011;18955;51.224;8.482;2023-05-17T11:35:26;15.70;;;2.83;;
32505;SDS011;18955;51.224;8.482;2023-05-17T11:40:49;19.60;;;2.65;;
32505;SDS011;18955;51.224;8.482;2023-05-17T11:43:21;16.25;;;2.83;;
32505;SDS011;18955;51.224;8.482;2023-05-17T11:48:20;8.80;;;2.55;;
32505;SDS011;18955;51.224;8.482;2023-05-17T11:50:47;13.50;;;2.35;;
32505;SDS011;18955;51.224;8.482;2023-05-17T11:53:15;12.13;;;2.70;;
32505;SDS011;18955;51.224;8.482;2023-05-17T11:55:43;15.43;;;2.80;;
32505;SDS011;18955;51.224;8.482;2023-05-17T11:58:14;13.30;;;2.50;;
32505;SDS011;18955;51.224;8.482;2023-05-17T12:00:42;8.35;;;2.60;;
32505;SDS011;18955;51.224;8.482;2023-05-17T12:03:18;14.98;;;3.40;;
32505;SDS011;18955;51.224;8.482;2023-05-17T12:06:00;14.82;;;2.92;;
32505;SDS011;18955;51.224;8.482;2023-05-17T12:08:38;12.00;;;2.35;;
32505;SDS011;18955;51.224;8.482;2023-05-17T12:11:10;14.15;;;3.33;;
32505;SDS011;18955;51.224;8.482;2023-05-17T12:13:41;11.38;;;2.42;;
32505;SDS011;18955;51.224;8.482;2023-05-17T12:16:10;13.10;;;3.67;;
32505;SDS011;18955;51.224;8.482;2023-05-17T12:18:42;17.27;;;3.00;;
32505;SDS011;18955;51.224;8.482;2023-05-17T12:21:11;9.73;;;2.70;;
32505;SDS011;18955;51.224;8.482;2023-05-17T12:23:39;10.05;;;2.70;;
32505;SDS011;18955;51.224;8.482;2023-05-17T12:28:58;9.52;;;1.98;;
32505;SDS011;18955;51.224;8.482;2023-05-17T12:31:36;12.75;;;2.65;;
32505;SDS011;18955;51.224;8.482;2023-05-17T12:34:05;14.00;;;3.22;;
32505;SDS011;18955;51.224;8.482;2023-05-17T12:36:31;10.27;;;2.22;;
32505;SDS011;18955;51.224;8.482;2023-05-17T12:38:58;8.18;;;2.05;;
32505;SDS011;18955;51.224;8.482;2023-05-17T12:41:26;12.88;;;2.70;;
32505;SDS011;18955;51.224;8.482;2023-05-17T12:43:54;10.43;;;2.58;;
32505;SDS011;18955;51.224;8.482;2023-05-17T12:46:21;10.75;;;2.47;;
32505;SDS011;18955;51.224;8.482;2023-05-17T12:48:49;15.98;;;2.63;;
32505;SDS011;18955;51.224;8.482;2023-05-17T12:51:17;13.35;;;2.75;;
32505;SDS011;18955;51.224;8.482;2023-05-17T12:53:51;9.90;;;3.25;;
32505;SDS011;18955;51.224;8.482;2023-05-17T12:56:20;7.47;;;2.30;;
32505;SDS011;18955;51.224;8.482;2023-05-17T13:01:44;10.23;;;2.55;;
32505;SDS011;18955;51.224;8.482;2023-05-17T13:04:11;11.57;;;3.28;;
32505;SDS011;18955;51.224;8.482;2023-05-17T13:06:42;12.38;;;2.60;;
32505;SDS011;18955;51.224;8.482;2023-05-17T13:09:13;14.25;;;2.83;;
32505;SDS011;18955;51.224;8.482;2023-05-17T13:11:41;9.65;;;2.53;;
32505;SDS011;18955;51.224;8.482;2023-05-17T13:14:07;11.63;;;3.00;;
32505;SDS011;18955;51.224;8.482;2023-05-17T13:16:38;8.73;;;2.00;;
32505;SDS011;18955;51.224;8.482;2023-05-17T13:19:14;10.60;;;2.35;;
32505;SDS011;18955;51.224;8.482;2023-05-17T13:21:40;8.38;;;2.20;;
32505;SDS011;18955;51.224;8.482;2023-05-17T13:24:08;14.75;;;2.63;;
32505;SDS011;18955;51.224;8.482;2023-05-17T13:26:35;11.98;;;2.95;;
32505;SDS011;18955;51.224;8.482;2023-05-17T13:29:01;15.82;;;2.53;;
32505;SDS011;18955;51.224;8.482;2023-05-17T13:31:27;12.13;;;2.70;;
32505;SDS011;18955;51.224;8.482;2023-05-17T13:33:54;6.13;;;1.77;;
32505;SDS011;18955;51.224;8.482;2023-05-17T13:38:46;7.68;;;2.60;;
32505;SDS011;18955;51.224;8.482;2023-05-17T13:41:13;11.07;;;1.83;;
32505;SDS011;18955;51.224;8.482;2023-05-17T13:43:40;13.20;;;2.60;;
32505;SDS011;18955;51.224;8.482;2023-05-17T13:46:06;6.20;;;1.95;;
32505;SDS011;18955;51.224;8.482;2023-05-17T13:48:32;9.35;;;1.95;;
32505;SDS011;18955;51.224;8.482;2023-05-17T13:50:58;12.25;;;2.58;;
32505;SDS011;18955;51.224;8.482;2023-05-17T13:55:51;8.38;;;2.60;;
32505;SDS011;18955;51.224;8.482;2023-05-17T13:58:17;11.27;;;2.80;;
32505;SDS011;18955;51.224;8.482;2023-05-17T14:00:44;9.30;;;2.35;;
32505;SDS011;18955;51.224;8.482;2023-05-17T14:03:10;6.82;;;2.17;;
32505;SDS011;18955;51.224;8.482;2023-05-17T14:05:38;10.90;;;2.80;;
32505;SDS011;18955;51.224;8.482;2023-05-17T14:10:31;8.98;;;2.90;;
32505;SDS011;18955;51.224;8.482;2023-05-17T14:12:57;14.32;;;2.60;;
32505;SDS011;18955;51.224;8.482;2023-05-17T14:15:23;7.95;;;2.47;;
32505;SDS011;18955;51.224;8.482;2023-05-17T14:17:49;15.63;;;3.20;;
32505;SDS011;18955;51.224;8.482;2023-05-17T14:20:16;10.40;;;2.72;;
32505;SDS011;18955;51.224;8.482;2023-05-17T14:22:42;12.23;;;3.00;;
32505;SDS011;18955;51.224;8.482;2023-05-17T14:25:08;16.25;;;2.70;;
32505;SDS011;18955;51.224;8.482;2023-05-17T14:27:36;11.82;;;2.70;;
32505;SDS011;18955;51.224;8.482;2023-05-17T14:30:02;12.35;;;2.92;;
32505;SDS011;18955;51.224;8.482;2023-05-17T14:32:29;10.40;;;2.92;;
32505;SDS011;18955;51.224;8.482;2023-05-17T14:34:55;7.53;;;1.75;;
32505;SDS011;18955;51.224;8.482;2023-05-17T14:37:22;7.50;;;2.22;;
32505;SDS011;18955;51.224;8.482;2023-05-17T14:39:48;14.48;;;3.17;;
32505;SDS011;18955;51.224;8.482;2023-05-17T14:42:14;14.48;;;3.92;;
32505;SDS011;18955;51.224;8.482;2023-05-17T14:44:40;9.65;;;2.97;;
32505;SDS011;18955;51.224;8.482;2023-05-17T14:47:06;8.75;;;2.67;;
32505;SDS011;18955;51.224;8.482;2023-05-17T14:49:33;17.77;;;3.35;;
32505;SDS011;18955;51.224;8.482;2023-05-17T14:51:59;14.38;;;3.40;;
32505;SDS011;18955;51.224;8.482;2023-05-17T14:54:25;13.60;;;2.95;;
32505;SDS011;18955;51.224;8.482;2023-05-17T14:56:55;9.23;;;2.80;;
32505;SDS011;18955;51.224;8.482;2023-05-17T14:59:21;10.32;;;2.50;;
32505;SDS011;18955;51.224;8.482;2023-05-17T15:01:47;11.57;;;2.35;;
32505;SDS011;18955;51.224;8.482;2023-05-17T15:04:13;13.93;;;3.25;;
32505;SDS011;18955;51.224;8.482;2023-05-17T15:06:40;17.33;;;3.25;;
32505;SDS011;18955;51.224;8.482;2023-05-17T15:09:06;15.00;;;2.95;;
32505;SDS011;18955;51.224;8.482;2023-05-17T15:11:34;14.90;;;3.42;;
32505;SDS011;18955;51.224;8.482;2023-05-17T15:14:00;6.45;;;1.95;;
32505;SDS011;18955;51.224;8.482;2023-05-17T15:16:26;7.95;;;2.53;;
32505;SDS011;18955;51.224;8.482;2023-05-17T15:18:53;13.77;;;2.80;;
32505;SDS011;18955;51.224;8.482;2023-05-17T15:21:19;15.52;;;4.03;;
32505;SDS011;18955;51.224;8.482;2023-05-17T15:23:45;12.45;;;2.53;;
32505;SDS011;18955;51.224;8.482;2023-05-17T15:26:12;16.40;;;3.25;;
32505;SDS011;18955;51.224;8.482;2023-05-17T15:28:39;19.83;;;3.53;;
32505;SDS011;18955;51.224;8.482;2023-05-17T15:31:05;9.10;;;2.58;;
32505;SDS011;18955;51.224;8.482;2023-05-17T15:33:31;9.32;;;2.70;;
32505;SDS011;18955;51.224;8.482;2023-05-17T15:35:58;16.02;;;2.95;;
32505;SDS011;18955;51.224;8.482;2023-05-17T15:38:24;9.80;;;2.70;;
32505;SDS011;18955;51.224;8.482;2023-05-17T15:40:51;10.93;;;2.47;;
32505;SDS011;18955;51.224;8.482;2023-05-17T15:43:29;9.32;;;2.60;;
32505;SDS011;18955;51.224;8.482;2023-05-17T15:45:56;14.02;;;2.78;;